Latest Weather Observations for Hindmarsh Island

IDS60901

Issued at 7:41 pm CDT Saturday 16 December 2017 (issued every 10 minutes, with the page automatically refreshed every 10 minutes)

About weather observations | Map of Adelaide area stations | Latest observations for Adelaide area | Other Formats
Station Details ID: 023894 Name: HINDMARSH ISLAND AWS Lat: -35.52 Lon: 138.82 Height: 11.0 m
Data from the previous 72 hours. | See also: Recent months at Hindmarsh Island
Date/Time
CDT
Temp
°C
App
Temp
°C
Dew
Point
°C
Rel
Hum
%
Delta-T
°C
Wind Press
QNH
hPa
Press
MSL
hPa
Rain since
9am
mm
Dir  Spd
km/h
Gust
km/h
Spd
kts
Gust
kts
16/07:30pm 19.5 15.4 12.8 65 3.8 S 26 30 14 16 1015.3 1015.3 0.0
16/07:00pm 20.4 16.2 13.4 64 4.0 SSE 28 33 15 18 1015.1 1015.1 0.0
16/06:30pm 20.4 16.2 13.4 64 4.0 SSE 28 35 15 19 1014.4 1014.4 0.0
16/06:00pm 20.5 15.8 13.2 63 4.2 SSE 30 35 16 19 1014.4 1014.4 0.0
16/05:30pm 20.9 16.3 12.3 58 4.8 SSE 28 33 15 18 1014.3 1014.3 0.0
16/05:00pm 20.8 16.0 13.0 61 4.4 SSE 30 35 16 19 1014.3 1014.3 0.0
16/04:30pm 21.9 18.2 15.0 65 4.1 SSE 28 33 15 18 1014.5 1014.5 0.0
16/04:00pm 21.6 17.0 13.5 60 4.7 SSE 30 35 16 19 1014.6 1014.6 0.0
16/03:30pm 22.1 18.1 14.2 61 4.6 SSE 28 33 15 18 1014.9 1014.9 0.0
16/03:00pm 21.6 17.3 13.2 59 4.8 SSE 28 33 15 18 1015.1 1015.1 0.0
16/02:30pm 21.8 17.7 12.6 56 5.2 SSE 26 32 14 17 1015.1 1015.1 0.0
16/02:00pm 21.7 17.9 12.3 55 5.3 SSE 24 30 13 16 1015.6 1015.6 0.0
16/01:30pm 21.4 17.7 12.8 58 4.9 SSE 24 30 13 16 1015.8 1015.8 0.0
16/01:00pm 22.1 18.2 12.1 53 5.6 SSE 24 30 13 16 1015.9 1015.9 0.0
16/12:30pm 21.6 18.2 12.5 56 5.1 S 22 28 12 15 1016.1 1016.1 0.0
16/12:00pm 22.0 19.2 13.1 57 5.1 S 20 26 11 14 1016.3 1016.3 0.0
16/11:30am 21.5 18.8 11.8 54 5.4 SSE 17 24 9 13 1016.4 1016.4 0.0
16/11:00am 21.5 19.1 12.6 57 5.0 S 17 22 9 12 1016.4 1016.4 0.0
16/10:30am 20.8 18.4 11.4 55 5.2 SSE 15 20 8 11 1016.2 1016.2 0.0
16/10:00am 20.9 18.9 12.8 60 4.6 SSE 15 20 8 11 1016.3 1016.3 0.0
16/09:30am 21.0 20.0 13.4 62 4.4 SSW 11 19 6 10 1016.2 1016.2 0.0
16/09:00am 20.0 18.5 13.0 64 4.0 SSW 13 20 7 11 1016.3 1016.3 0.0
16/08:30am 19.2 18.0 12.9 67 3.5 SW 11 17 6 9 1015.8 1015.8 0.0
16/08:00am 18.4 17.7 13.3 72 2.9 SW 9 15 5 8 1015.6 1015.6 0.0
16/07:30am 16.5 16.1 13.0 80 1.9 NW 7 9 4 5 1015.3 1015.3 0.0
16/07:00am 14.9 13.9 12.2 84 1.5 NNW 9 9 5 5 1014.9 1014.9 0.0
16/06:30am 14.2 13.0 11.5 84 1.4 NW 9 11 5 6 1014.3 1014.3 0.0
16/06:00am 14.4 13.2 11.6 83 1.5 NW 9 11 5 6 1013.9 1013.9 0.0
16/05:30am 14.9 13.8 12.0 83 1.6 NW 9 11 5 6 1013.6 1013.6 0.0
16/05:00am 15.2 14.2 12.3 83 1.6 WNW 9 9 5 5 1013.6 1013.6 0.0
16/04:30am 15.2 14.2 12.2 82 1.6 NW 9 11 5 6 1013.5 1013.5 0.0
16/04:00am 15.1 14.0 11.9 81 1.7 NW 9 11 5 6 1013.4 1013.4 0.0
16/03:30am 15.3 14.2 12.1 81 1.7 NW 9 11 5 6 1013.4 1013.4 0.0
16/03:00am 15.5 14.4 11.9 79 2.0 NW 9 9 5 5 1013.3 1013.3 0.0
16/02:30am 16.5 15.4 11.9 74 2.5 W 9 13 5 7 1013.4 1013.4 0.0
16/02:00am 17.0 15.1 11.9 72 2.8 SW 13 15 7 8 1013.5 1013.5 0.0
16/01:30am 17.4 15.0 12.5 73 2.7 SSW 17 20 9 11 1013.6 1013.6 0.0
16/01:00am 17.3 14.6 11.8 70 3.0 SSW 17 20 9 11 1013.7 1013.7 0.0
16/12:30am 17.6 15.0 11.9 69 3.1 SSW 17 22 9 12 1013.9 1013.9 0.0
16/12:00am 17.7 15.0 11.7 68 3.3 SSW 17 20 9 11 1014.0 1014.0 0.0
 
Date/Time
CDT
Temp
°C
App
Temp
°C
Dew
Point
°C
Rel
Hum
%
Delta-T
°C
Wind Press
QNH
hPa
Press
MSL
hPa
Rain since
9am
mm
Dir  Spd
km/h
Gust
km/h
Spd
kts
Gust
kts
15/11:30pm 17.7 15.0 11.7 68 3.3 SSW 17 22 9 12 1014.2 1014.2 0.0
15/11:00pm 17.6 14.9 11.6 68 3.3 S 17 20 9 11 1014.2 1014.2 0.0
15/10:30pm 17.8 15.1 11.6 67 3.4 S 17 20 9 11 1014.0 1014.0 0.0
15/10:00pm 17.9 14.5 11.2 65 3.6 S 20 24 11 13 1013.8 1013.8 0.0
15/09:30pm 18.1 14.3 11.0 63 3.8 S 22 26 12 14 1013.4 1013.4 0.0
15/09:00pm 18.3 14.6 11.4 64 3.8 S 22 28 12 15 1013.2 1013.2 0.0
15/08:30pm 18.4 14.2 11.2 63 3.9 SSW 24 28 13 15 1012.9 1012.9 0.0
15/08:00pm 18.6 13.9 10.7 60 4.3 SSW 26 30 14 16 1012.6 1012.5 0.0
15/07:30pm 19.2 14.9 10.7 58 4.6 S 24 28 13 15 1012.3 1012.2 0.0
15/07:00pm 19.1 14.1 10.9 59 4.5 S 28 32 15 17 1011.9 1011.8 0.0
15/06:30pm 19.9 14.4 11.9 60 4.4 S 32 35 17 19 1011.6 1011.5 0.0
15/06:00pm 20.3 15.2 11.8 58 4.7 S 30 35 16 19 1011.5 1011.4 0.0
15/05:30pm 21.0 15.9 11.9 56 5.1 S 30 33 16 18 1011.5 1011.4 0.0
15/05:00pm 21.2 16.8 11.8 55 5.2 S 26 32 14 17 1011.5 1011.4 0.0
15/04:30pm 21.5 17.5 11.8 54 5.4 S 24 30 13 16 1011.5 1011.4 0.0
15/04:00pm 21.8 17.8 11.8 53 5.6 S 24 30 13 16 1011.6 1011.5 0.0
15/03:30pm 21.2 16.6 11.0 52 5.6 S 26 32 14 17 1011.7 1011.6 0.0
15/03:00pm 21.8 16.6 10.3 48 6.3 S 28 32 15 17 1011.9 1011.8 0.0
15/02:30pm 22.1 16.4 9.9 46 6.6 SSW 30 33 16 18 1012.3 1012.2 0.0
15/02:00pm 21.8 15.6 9.3 45 6.7 SSW 32 35 17 19 1012.4 1012.3 0.0
15/01:30pm 22.0 16.7 11.4 51 5.9 S 30 35 16 19 1012.5 1012.4 0.0
15/01:00pm 21.9 16.9 12.2 54 5.5 SSE 30 35 16 19 1012.3 1012.2 0.0
15/12:30pm 22.0 17.1 12.5 54 5.4 SSE 30 33 16 18 1012.3 1012.2 0.0
15/12:00pm 22.3 18.7 11.7 51 5.9 SSE 22 28 12 15 1012.6 1012.5 0.0
15/11:30am 22.1 19.1 11.8 52 5.8 SE 19 24 10 13 1013.0 1013.0 0.0
15/11:00am 22.3 19.1 8.4 41 7.3 ESE 15 20 8 11 1013.4 1013.4 0.0
15/10:30am 20.7 18.7 8.7 46 6.3 ENE 9 15 5 8 1013.9 1013.9 0.0
15/10:00am 19.9 18.2 9.8 52 5.4 N 9 13 5 7 1014.0 1014.0 0.0
15/09:30am 19.5 16.9 9.4 52 5.3 NNE 13 20 7 11 1014.0 1014.0 0.0
15/09:00am 18.8 16.3 9.6 55 4.9 NNE 13 20 7 11 1014.1 1014.1 0.0
15/08:30am 18.4 15.6 10.0 58 4.5 NE 15 19 8 10 1014.1 1014.1 0.0
15/08:00am 17.6 15.7 10.5 63 3.8 NNE 11 15 6 8 1014.1 1014.1 0.0
15/07:30am 16.2 15.1 10.5 69 3.0 N 7 9 4 5 1014.0 1014.0 0.0
15/07:00am 14.3 13.0 9.9 75 2.3 NNW 7 9 4 5 1013.9 1013.9 0.0
15/06:30am 13.2 11.4 9.6 79 1.8 NNW 9 11 5 6 1013.6 1013.6 0.0
15/06:00am 13.2 11.4 9.6 79 1.8 NNW 9 11 5 6 1013.4 1013.4 0.0
15/05:30am 13.4 11.6 9.6 78 1.9 NNW 9 11 5 6 1013.2 1013.2 0.0
15/05:00am 13.8 12.0 9.6 76 2.2 N 9 11 5 6 1013.0 1013.0 0.0
15/04:30am 14.6 12.6 8.8 68 2.9 SE 9 13 5 7 1012.7 1012.7 0.0
15/04:00am 16.0 13.5 9.7 66 3.3 SSE 13 17 7 9 1012.6 1012.5 0.0
15/03:30am 16.0 13.6 10.1 68 3.1 S 13 15 7 8 1012.7 1012.7 0.0
15/03:00am 16.0 13.5 9.7 66 3.3 S 13 17 7 9 1012.9 1012.9 0.0
15/02:30am 16.1 13.7 10.0 67 3.2 S 13 17 7 9 1013.1 1013.1 0.0
15/02:00am 16.1 13.7 10.0 67 3.2 S 13 17 7 9 1013.4 1013.4 0.0
15/01:30am 16.3 13.0 9.7 65 3.4 SSW 17 20 9 11 1013.7 1013.7 0.0
15/01:00am 16.6 13.4 10.0 65 3.5 S 17 20 9 11 1014.0 1014.0 0.0
15/12:30am 16.9 13.5 10.7 67 3.3 S 19 22 10 12 1014.0 1014.0 0.0
15/12:00am 16.9 13.3 10.5 66 3.4 S 20 28 11 15 1014.0 1014.0 0.0
 
Date/Time
CDT
Temp
°C
App
Temp
°C
Dew
Point
°C
Rel
Hum
%
Delta-T
°C
Wind Press
QNH
hPa
Press
MSL
hPa
Rain since
9am
mm
Dir  Spd
km/h
Gust
km/h
Spd
kts
Gust
kts
14/11:30pm 16.9 13.0 10.7 67 3.3 S 22 26 12 14 1013.9 1013.9 0.0
14/11:00pm 17.1 13.0 11.4 69 3.1 SSW 24 28 13 15 1013.9 1013.9 0.0
14/10:30pm 17.2 13.5 11.5 69 3.1 S 22 28 12 15 1013.9 1013.9 0.0
14/10:00pm 17.3 13.5 11.3 68 3.2 SSW 22 26 12 14 1013.8 1013.8 0.0
14/09:30pm 17.5 13.6 12.0 70 3.0 S 24 30 13 16 1013.5 1013.5 0.0
14/09:00pm 17.6 14.0 11.9 69 3.1 S 22 26 12 14 1013.4 1013.4 0.0
14/08:30pm 17.8 14.0 12.5 71 2.9 S 24 32 13 17 1013.3 1013.3 0.0
14/08:00pm 18.1 14.2 12.1 68 3.3 SSW 24 28 13 15 1013.0 1013.0 0.0
14/07:30pm 18.7 14.8 12.2 66 3.6 SSW 24 28 13 15 1012.7 1012.7 0.0
14/07:00pm 19.3 14.9 11.8 62 4.1 SSW 26 30 14 16 1012.3 1012.2 0.0
14/06:30pm 19.7 15.3 11.7 60 4.4 SSW 26 32 14 17 1012.1 1012.0 0.0
14/06:00pm 19.9 15.4 11.4 58 4.7 SSW 26 32 14 17 1012.0 1011.9 0.0
14/05:30pm 20.4 17.1 10.8 54 5.2 S 19 26 10 14 1012.1 1012.0 0.0
14/05:00pm 21.1 18.1 12.0 56 5.1 S 19 24 10 13 1012.3 1012.2 0.0
14/04:30pm 21.2 17.8 10.7 51 5.7 S 19 24 10 13 1012.4 1012.3 0.0
14/04:00pm 22.0 19.2 11.4 51 5.9 S 17 24 9 13 1012.6 1012.5 0.0
14/03:30pm 20.8 18.3 11.2 54 5.3 S 15 20 8 11 1012.6 1012.5 0.0
14/03:00pm 21.0 18.3 10.5 51 5.7 SSW 15 20 8 11 1012.6 1012.5 0.0
14/02:30pm 21.1 18.6 10.9 52 5.6 SSW 15 20 8 11 1012.6 1012.5 0.0
14/02:00pm 20.7 17.4 10.8 53 5.4 SSW 19 22 10 12 1012.5 1012.4 0.0
14/01:30pm 21.2 17.4 11.2 53 5.5 SSW 22 30 12 16 1012.5 1012.4 0.0
14/01:00pm 20.7 16.6 11.3 55 5.2 SSW 24 30 13 16 1012.6 1012.5 0.0
14/12:30pm 21.3 16.4 12.4 57 5.0 SSW 30 37 16 20 1012.5 1012.4 0.0
14/12:00pm 20.7 15.3 12.7 60 4.5 SSW 33 41 18 22 1012.3 1012.2 0.0
14/11:30am 20.7 16.5 13.4 63 4.2 SW 28 37 15 20 1012.3 1012.2 0.0
14/11:00am 18.1 13.9 12.5 70 3.1 SW 26 32 14 17 1012.4 1012.3 0.0
14/10:30am 17.8 13.9 13.3 75 2.5 SSW 26 32 14 17 1012.0 1011.9 0.0
14/10:00am 17.7 13.7 14.0 79 2.1 SW 28 33 15 18 1012.0 1011.9 0.0
14/09:30am 17.3 13.6 13.8 80 2.0 SW 26 33 14 18 1011.6 1011.5 0.0
14/09:00am 16.7 13.0 14.0 84 1.5 SW 26 33 14 18 1011.2 1011.1 0.4
14/08:30am 16.6 12.8 14.8 89 1.0 SW 28 35 15 19 1010.6 1010.5 0.2
14/08:00am 16.8 14.0 15.3 91 0.9 SSW 24 30 13 16 1010.5 1010.4 0.2
14/07:30am 17.0 13.7 16.0 94 0.6 SSW 28 35 15 19 1010.2 1010.1 0.2
14/07:00am 17.1 13.8 16.1 94 0.6 SSW 28 33 15 18 1009.5 1009.4 0.0
14/06:30am 17.3 13.1 15.8 91 0.9 SSW 32 35 17 19 1008.9 1008.8 0.0
14/06:00am 17.5 14.4 15.5 88 1.2 SSW 26 32 14 17 1008.5 1008.4 0.0
14/05:30am 18.0 15.3 15.6 86 1.4 SW 24 32 13 17 1008.4 1008.3 0.0
14/05:00am 18.2 15.7 15.1 82 1.8 SW 22 28 12 15 1007.7 1007.6 0.0
14/04:30am 18.3 15.1 15.2 82 1.8 SSW 26 30 14 16 1007.3 1007.2 0.0
14/04:00am 18.2 14.2 15.1 82 1.8 SW 30 37 16 20 1007.1 1007.0 0.0
14/03:30am 18.2 14.1 14.9 81 1.9 SW 30 37 16 20 1006.9 1006.8 0.0
14/03:00am 18.4 13.8 15.1 81 1.9 SW 33 41 18 22 1006.7 1006.6 0.0
14/02:30am 18.4 13.8 15.1 81 1.9 SW 33 43 18 23 1006.5 1006.4 0.0
14/02:00am 18.4 13.1 15.3 82 1.8 SW 37 44 20 24 1006.3 1006.2 0.0
14/01:30am 18.6 13.8 15.5 82 1.8 SW 35 46 19 25 1006.6 1006.5 0.0
14/01:00am 18.8 16.2 15.9 83 1.7 SW 24 33 13 18 1007.0 1006.9 0.0
14/12:30am 18.9 16.7 16.0 83 1.7 SW 22 28 12 15 1007.2 1007.1 0.0
14/12:00am 19.1 16.6 16.1 83 1.8 SW 24 30 13 16 1007.2 1007.1 0.0
 
Date/Time
CDT
Temp
°C
App
Temp
°C
Dew
Point
°C
Rel
Hum
%
Delta-T
°C
Wind Press
QNH
hPa
Press
MSL
hPa
Rain since
9am
mm
Dir  Spd
km/h
Gust
km/h
Spd
kts
Gust
kts
13/11:30pm 19.1 15.7 15.8 81 2.0 SW 28 35 15 19 1006.9 1006.8 0.0
13/11:00pm 19.4 16.0 15.9 80 2.1 SW 28 33 15 18 1006.9 1006.8 0.0
13/10:30pm 19.9 17.1 16.3 80 2.2 SW 26 32 14 17 1006.8 1006.7 0.0
13/10:00pm 20.7 17.6 16.5 77 2.5 SW 28 33 15 18 1006.8 1006.7 0.0
13/09:30pm 20.5 18.9 16.5 78 2.4 SSE 20 28 11 15 1006.6 1006.5 0.0
13/09:00pm 21.0 19.1 16.6 76 2.7 SSW 22 28 12 15 1005.9 1005.8 0.0
13/08:30pm 21.6 21.9 15.9 70 3.4 SE 9 19 5 10 1005.8 1005.7 0.0
13/08:00pm 22.4 21.9 16.0 67 3.9 S 13 17 7 9 1005.3 1005.2 0.0

Latest Capital City Observations: Canberra | Sydney | Melbourne | Brisbane | Adelaide | Perth | Hobart | Darwin

Other Formats:

Comma delimited format used in spreadsheet applications
http://www.bom.gov.au/fwo/IDS60901/IDS60901.94677.axf

JavaScript Object Notation format (JSON) in row-major order
http://www.bom.gov.au/fwo/IDS60901/IDS60901.94677.json